Time;durP1;ratioP1;P1;durP2;ratioP2;P2;SDS_P1;SDS_P2;PMS_P1;PMS_P2;Temp;Humidity;BMP_temperature;BMP_pressure;BME280_temperature;BME280_humidity;BME280_pressure;Samples;Min_cycle;Max_cycle;Signal;HPM_P1;HPM_P2
2023/02/26 00:00:19;;;;;;;1.03;1.03;;;;;;;1.34;77.10;100048.81;5073124;28;21026;-51
2023/02/26 00:02:47;;;;;;;0.20;0.20;;;;;;;1.68;75.99;100036.72;5072579;28;20477;-51
2023/02/26 00:05:15;;;;;;;0.30;0.20;;;;;;;1.93;74.08;100040.31;5060039;28;20512;-51
2023/02/26 00:07:42;;;;;;;0.77;0.77;;;;;;;1.36;77.03;100047.94;5073223;28;20450;-50
2023/02/26 00:10:11;;;;;;;0.20;0.20;;;;;;;1.55;76.15;100040.19;5073293;28;20483;-51
2023/02/26 00:12:38;;;;;;;3.83;1.20;;;;;;;1.41;76.13;100047.97;5072939;28;20489;-51
2023/02/26 00:15:07;;;;;;;0.63;0.63;;;;;;;1.22;77.92;100049.63;5073094;28;20839;-51
2023/02/26 00:17:44;;;;;;;0.47;0.40;;;;;;;1.53;76.81;100050.66;5072903;28;20575;-51
2023/02/26 00:20:12;;;;;;;0.60;0.30;;;;;;;1.66;75.59;100049.81;5072907;28;20955;-51
2023/02/26 00:22:39;;;;;;;0.20;0.20;;;;;;;1.69;75.37;100048.97;5072814;28;20446;-50
2023/02/26 00:25:07;;;;;;;2.20;0.20;;;;;;;1.52;74.24;100050.66;5072561;28;20445;-51
2023/02/26 00:27:34;;;;;;;0.30;0.30;;;;;;;1.68;74.63;100055.06;5072792;28;20450;-51
2023/02/26 00:30:05;;;;;;;0.20;0.13;;;;;;;1.37;76.03;100054.94;5072820;28;20457;-52
2023/02/26 00:32:33;;;;;;;0.30;0.20;;;;;;;1.33;75.99;100057.53;5072467;28;20503;-50
2023/02/26 00:35:00;;;;;;;0.20;0.20;;;;;;;1.16;77.32;100057.44;5072659;28;20446;-51
2023/02/26 00:37:33;;;;;;;1.40;0.70;;;;;;;1.23;76.83;100059.22;5072436;28;21072;-50
2023/02/26 00:40:23;;;;;;;0.30;0.20;;;;;;;1.25;77.57;100061.88;5072604;28;20453;-51
2023/02/26 00:42:51;;;;;;;0.20;0.10;;;;;;;1.16;77.52;100066.19;5072579;28;20449;-51
2023/02/26 00:45:18;;;;;;;4.93;0.50;;;;;;;1.16;78.30;100060.06;5072340;28;20461;-51
2023/02/26 00:48:05;;;;;;;0.30;0.23;;;;;;;1.18;79.25;100063.56;5054786;28;20453;-51
2023/02/26 00:50:32;;;;;;;0.30;0.20;;;;;;;1.29;78.36;100063.63;5072235;28;20491;-52
2023/02/26 00:53:19;;;;;;;0.20;0.10;;;;;;;1.25;79.22;100067.97;5072392;28;20850;-50
2023/02/26 00:55:45;;;;;;;0.20;0.20;;;;;;;1.34;79.22;100073.25;5061095;28;20544;-51
2023/02/26 00:58:11;;;;;;;48.13;1.80;;;;;;;1.47;78.93;100071.56;5072083;28;20445;-51
2023/02/26 01:00:38;;;;;;;5.80;0.40;;;;;;;1.50;78.93;100068.94;5072248;28;20453;-51
2023/02/26 01:03:05;;;;;;;1.07;0.30;;;;;;;1.47;78.88;100064.56;5072089;28;20491;-51
2023/02/26 01:05:31;;;;;;;0.20;0.20;;;;;;;1.66;79.30;100073.41;5072153;28;20465;-51
2023/02/26 01:08:06;;;;;;;0.20;0.20;;;;;;;1.97;77.11;100082.22;5072041;28;20468;-50
2023/02/26 01:10:33;;;;;;;0.50;0.50;;;;;;;2.02;76.84;100074.38;5072230;28;20939;-50
2023/02/26 01:13:00;;;;;;;0.90;0.30;;;;;;;1.87;77.39;100083.06;5071974;28;20482;-50
2023/02/26 01:15:27;;;;;;;0.30;0.20;;;;;;;1.91;76.62;100074.34;5072129;28;20474;-51
2023/02/26 01:18:15;;;;;;;0.40;0.40;;;;;;;1.84;77.49;100080.44;5072063;28;20448;-52
2023/02/26 01:20:47;;;;;;;0.20;0.20;;;;;;;1.96;76.16;100088.34;5072086;28;20935;-50
2023/02/26 01:23:20;;;;;;;0.30;0.20;;;;;;;1.93;76.82;100080.47;5072315;28;20445;-50
2023/02/26 01:25:48;;;;;;;0.20;0.20;;;;;;;2.00;76.98;100071.75;5071828;28;20978;-51
2023/02/26 01:28:15;;;;;;;0.20;0.10;;;;;;;2.05;77.01;100070.00;5072216;28;20446;-51
2023/02/26 01:30:42;;;;;;;0.30;0.20;;;;;;;1.93;77.94;100070.00;5072021;28;20449;-50
2023/02/26 01:33:15;;;;;;;0.77;0.77;;;;;;;1.95;76.80;100076.13;5072019;28;20532;-50
2023/02/26 01:35:59;;;;;;;0.30;0.20;;;;;;;1.92;77.10;100075.22;5071977;28;20473;-51
2023/02/26 01:39:10;;;;;;;0.40;0.30;;;;;;;1.85;77.85;100073.47;5072359;28;20446;-51
2023/02/26 01:41:49;;;;;;;0.30;0.20;;;;;;;1.94;76.99;100071.75;5063738;28;20442;-50
2023/02/26 01:44:25;;;;;;;0.20;0.10;;;;;;;1.97;77.10;100073.50;5058739;28;20446;-51
2023/02/26 01:47:17;;;;;;;0.43;0.43;;;;;;;2.04;76.85;100078.75;5071468;28;20851;-51
2023/02/26 01:49:44;;;;;;;0.33;0.33;;;;;;;2.10;76.38;100077.91;5071624;28;20445;-51
2023/02/26 01:52:32;;;;;;;0.30;0.30;;;;;;;1.90;77.40;100080.44;5071696;28;20460;-50
2023/02/26 01:54:58;;;;;;;0.30;0.20;;;;;;;1.94;78.08;100082.22;5071991;28;20567;-49
2023/02/26 01:57:25;;;;;;;0.20;0.10;;;;;;;1.96;77.94;100088.34;5071884;28;20450;-51
2023/02/26 01:59:51;;;;;;;0.20;0.10;;;;;;;2.07;77.30;100093.63;5071538;28;20445;-51
2023/02/26 02:02:21;;;;;;;0.20;0.20;;;;;;;2.04;77.54;100085.72;5054301;28;20456;-50
2023/02/26 02:04:48;;;;;;;0.30;0.30;;;;;;;2.05;77.79;100084.84;5071692;28;20804;-51
2023/02/26 02:07:16;;;;;;;0.20;0.20;;;;;;;1.97;77.52;100087.47;5071586;28;20466;-51
2023/02/26 02:09:42;;;;;;;0.50;0.20;;;;;;;2.09;77.96;100086.63;5071632;28;20454;-52
2023/02/26 02:12:18;;;;;;;0.20;0.10;;;;;;;2.05;76.71;100080.47;5071664;28;20453;-52
2023/02/26 02:15:03;;;;;;;0.30;0.30;;;;;;;2.11;76.96;100084.00;5071763;28;20449;-52
2023/02/26 02:17:57;;;;;;;0.20;0.20;;;;;;;1.98;77.66;100083.97;5071647;28;20519;-51
2023/02/26 02:20:35;;;;;;;1.00;0.93;;;;;;;1.68;79.20;100095.25;5071658;28;20442;-51
2023/02/26 02:23:16;;;;;;;0.20;0.20;;;;;;;1.64;78.67;100089.97;5071670;28;20445;-51
2023/02/26 02:26:18;;;;;;;0.30;0.20;;;;;;;1.67;78.72;100101.34;5072847;28;20512;-51
2023/02/26 02:29:27;;;;;;;0.30;0.30;;;;;;;1.58;79.50;100095.19;5075082;28;20441;-50
2023/02/26 02:32:00;;;;;;;0.50;0.47;;;;;;;1.57;78.72;100110.03;5067576;28;20551;-51
2023/02/26 02:34:30;;;;;;;1.03;1.03;;;;;;;1.60;79.88;100107.41;5061523;28;20607;-51
2023/02/26 02:37:16;;;;;;;0.27;0.20;;;;;;;1.66;78.65;100102.22;5074811;28;20499;-51
2023/02/26 02:39:48;;;;;;;0.20;0.10;;;;;;;1.48;78.89;100112.59;5074941;28;20441;-50
2023/02/26 02:42:15;;;;;;;0.40;0.20;;;;;;;1.63;79.69;100114.41;5075012;28;20450;-50
2023/02/26 02:44:46;;;;;;;0.20;0.17;;;;;;;1.56;80.92;100124.00;5074846;28;20526;-51
2023/02/26 02:47:16;;;;;;;0.30;0.30;;;;;;;1.31;83.11;100120.34;5074532;28;20478;-51
2023/02/26 02:50:00;;;;;;;0.20;0.10;;;;;;;1.29;84.58;100114.25;5074801;28;20456;-51
2023/02/26 02:52:37;;;;;;;0.30;0.20;;;;;;;1.28;84.16;100127.31;5074632;28;20529;-51
2023/02/26 02:55:09;;;;;;;0.20;0.10;;;;;;;1.21;86.27;100126.41;5074455;28;20441;-51
2023/02/26 02:57:42;;;;;;;0.20;0.17;;;;;;;1.31;86.63;100138.69;5074758;28;20442;-50
2023/02/26 03:00:12;;;;;;;0.60;0.23;;;;;;;1.31;86.61;100128.22;5074350;28;20446;-50
2023/02/26 03:03:01;;;;;;;0.20;0.13;;;;;;;1.35;87.18;100129.97;5074379;28;20457;-51
2023/02/26 03:05:28;;;;;;;2.67;0.30;;;;;;;1.41;87.69;100140.50;5024026;28;20570;-51
2023/02/26 03:08:01;;;;;;;0.20;0.10;;;;;;;1.45;88.13;100131.78;5074570;28;20446;-51
2023/02/26 03:10:27;;;;;;;0.20;0.20;;;;;;;1.63;87.89;100143.22;5074468;28;20798;-51
2023/02/26 03:12:54;;;;;;;0.40;0.40;;;;;;;1.71;88.69;100139.78;5074091;28;20489;-51
2023/02/26 03:15:35;;;;;;;0.20;0.10;;;;;;;1.76;89.49;100145.91;5074311;28;21078;-51
2023/02/26 03:18:19;;;;;;;0.20;0.10;;;;;;;1.67;90.06;100142.38;5074307;28;20446;-51
2023/02/26 03:21:05;;;;;;;0.20;0.10;;;;;;;1.56;90.50;100152.81;5074567;28;20918;-51
2023/02/26 03:23:37;;;;;;;0.70;0.70;;;;;;;1.65;90.53;100146.75;5074434;28;20452;-51
2023/02/26 03:26:14;;;;;;;0.40;0.37;;;;;;;1.61;91.16;100152.81;5074145;28;20465;-51
2023/02/26 03:28:46;;;;;;;0.30;0.20;;;;;;;1.83;90.41;100164.28;5074409;28;20459;-51
2023/02/26 03:31:25;;;;;;;0.30;0.20;;;;;;;1.68;91.54;100158.13;5074106;28;20446;-50
2023/02/26 03:34:05;;;;;;;0.30;0.23;;;;;;;1.66;92.27;100158.97;5073714;28;20489;-51
2023/02/26 03:36:45;;;;;;;0.63;0.50;;;;;;;1.74;91.42;100157.25;5073114;28;20469;-51
2023/02/26 03:39:30;;;;;;;0.20;0.20;;;;;;;1.70;91.71;100159.00;5073704;28;20454;-50
2023/02/26 03:42:05;;;;;;;0.30;0.30;;;;;;;1.65;92.38;100157.22;5073508;28;20445;-50
2023/02/26 03:44:55;;;;;;;0.30;0.20;;;;;;;1.79;91.84;100160.78;5073975;28;20445;-51
2023/02/26 03:47:23;;;;;;;0.30;0.20;;;;;;;1.79;91.76;100173.88;5073447;28;20486;-51
2023/02/26 03:50:15;;;;;;;0.27;0.20;;;;;;;1.68;92.80;100171.22;5073722;28;20457;-50
2023/02/26 03:52:45;;;;;;;0.50;0.50;;;;;;;1.70;92.47;100171.22;5045971;28;20442;-50
2023/02/26 03:55:15;;;;;;;0.30;0.20;;;;;;;1.63;92.48;100172.03;5073525;28;20503;-51
2023/02/26 03:57:43;;;;;;;2.00;1.13;;;;;;;1.62;92.43;100176.41;5073438;28;20446;-50
2023/02/26 04:00:11;;;;;;;1.40;0.37;;;;;;;1.46;92.55;100174.56;5073283;28;20999;-52
2023/02/26 04:02:56;;;;;;;0.30;0.20;;;;;;;1.73;92.04;100179.97;5073367;28;20475;-51
2023/02/26 04:05:27;;;;;;;0.30;0.20;;;;;;;1.41;93.62;100176.28;5061377;28;20978;-51
2023/02/26 04:07:55;;;;;;;6.63;0.67;;;;;;;1.72;91.96;100179.94;5073429;28;20499;-51
2023/02/26 04:10:31;;;;;;;0.20;0.20;;;;;;;1.59;92.67;100186.00;5073614;28;20457;-52
2023/02/26 04:12:59;;;;;;;0.30;0.20;;;;;;;1.37;93.97;100192.81;5073105;28;20453;-51
2023/02/26 04:15:26;;;;;;;0.30;0.20;;;;;;;1.24;93.68;100193.63;5072960;28;20846;-50
2023/02/26 04:17:53;;;;;;;0.20;0.10;;;;;;;1.27;94.42;100197.13;5073103;28;20452;-51
2023/02/26 04:20:19;;;;;;;0.40;0.20;;;;;;;1.15;93.10;100199.66;5073197;28;20450;-51
2023/02/26 04:22:45;;;;;;;0.40;0.40;;;;;;;1.28;93.09;100206.75;5072791;28;20953;-51
2023/02/26 04:25:12;;;;;;;6.80;1.03;;;;;;;0.96;91.79;100205.59;5072861;28;20452;-51
2023/02/26 04:27:38;;;;;;;0.40;0.20;;;;;;;0.79;91.42;100213.28;5072683;28;20449;-51
2023/02/26 04:30:06;;;;;;;0.30;0.20;;;;;;;0.74;90.59;100218.47;5072951;28;20450;-51
2023/02/26 04:32:32;;;;;;;78.17;0.93;;;;;;;0.73;90.16;100221.97;5072821;28;20446;-51
2023/02/26 04:34:58;;;;;;;0.20;0.20;;;;;;;0.69;91.30;100224.53;5072642;28;20489;-51
2023/02/26 04:37:25;;;;;;;0.40;0.40;;;;;;;0.73;91.18;100219.34;5072417;28;20939;-50
2023/02/26 04:39:51;;;;;;;0.30;0.30;;;;;;;0.70;91.15;100221.94;5072686;28;20452;-51
2023/02/26 04:42:18;;;;;;;0.43;0.43;;;;;;;0.71;90.07;100221.06;5072686;28;20456;-51
2023/02/26 04:44:44;;;;;;;0.40;0.30;;;;;;;0.61;90.90;100221.84;5072781;28;20468;-50
2023/02/26 04:47:11;;;;;;;0.30;0.20;;;;;;;0.59;90.59;100234.03;5072859;28;20572;-46
2023/02/26 04:49:37;;;;;;;0.43;0.20;;;;;;;0.71;89.84;100226.31;5072121;28;20457;-47
2023/02/26 04:52:03;;;;;;;0.20;0.10;;;;;;;0.63;89.61;100233.19;5072483;28;20540;-46
2023/02/26 04:54:30;;;;;;;3.00;0.50;;;;;;;0.57;90.48;100233.13;5072454;28;20543;-46
2023/02/26 04:56:57;;;;;;;0.30;0.20;;;;;;;0.60;90.51;100241.00;5072139;28;20503;-46
2023/02/26 04:59:23;;;;;;;0.40;0.20;;;;;;;0.54;89.87;100243.53;5072689;28;20458;-46
2023/02/26 05:01:49;;;;;;;0.30;0.30;;;;;;;0.62;89.77;100252.34;5072235;28;20454;-46
2023/02/26 05:04:16;;;;;;;0.57;0.57;;;;;;;0.43;91.34;100248.66;5072315;28;21008;-47
2023/02/26 05:06:42;;;;;;;0.20;0.10;;;;;;;0.39;91.17;100252.09;5072228;28;20490;-46
2023/02/26 05:09:09;;;;;;;0.20;0.10;;;;;;;0.33;91.79;100262.47;5072250;28;20868;-46
2023/02/26 05:11:35;;;;;;;0.20;0.20;;;;;;;0.43;90.80;100266.09;5071977;28;20461;-47
2023/02/26 05:14:02;;;;;;;0.30;0.20;;;;;;;0.61;90.71;100255.84;5072064;28;20990;-47
2023/02/26 05:16:28;;;;;;;0.30;0.30;;;;;;;0.69;89.59;100258.53;5072008;28;20990;-49
2023/02/26 05:18:55;;;;;;;0.20;0.10;;;;;;;0.67;89.91;100258.50;5072221;28;20499;-47
2023/02/26 05:21:21;;;;;;;0.30;0.20;;;;;;;0.59;89.32;100268.91;5072049;28;20450;-47
2023/02/26 05:23:51;;;;;;;0.30;0.23;;;;;;;0.30;90.67;100270.28;5072130;28;20935;-47
2023/02/26 05:26:17;;;;;;;0.30;0.30;;;;;;;0.38;90.81;100268.63;5071880;28;20480;-47
2023/02/26 05:28:44;;;;;;;0.27;0.17;;;;;;;0.42;89.97;100261.72;5072076;28;20541;-46
2023/02/26 05:31:12;;;;;;;0.20;0.20;;;;;;;0.52;89.79;100263.56;5072063;28;20460;-46
2023/02/26 05:33:39;;;;;;;0.20;0.20;;;;;;;0.63;88.47;100272.41;5071882;28;20482;-46
2023/02/26 05:36:06;;;;;;;0.20;0.20;;;;;;;0.47;88.50;100276.59;5072004;28;20470;-47
2023/02/26 05:38:32;;;;;;;0.30;0.30;;;;;;;0.46;89.29;100276.56;5071835;28;20503;-47
2023/02/26 05:40:59;;;;;;;1.13;1.13;;;;;;;0.50;88.88;100287.09;5072206;28;20453;-48
2023/02/26 05:43:26;;;;;;;0.70;0.70;;;;;;;0.58;88.48;100295.03;5072106;28;20492;-47
2023/02/26 05:45:54;;;;;;;0.30;0.20;;;;;;;0.71;88.42;100290.81;5071779;28;20480;-46
2023/02/26 05:48:21;;;;;;;0.20;0.17;;;;;;;0.68;88.14;100293.38;5071871;28;20537;-46
2023/02/26 05:50:48;;;;;;;0.30;0.20;;;;;;;0.70;88.46;100295.19;5071954;28;20449;-46
2023/02/26 05:53:15;;;;;;;0.30;0.20;;;;;;;0.29;89.15;100299.91;5071623;28;20454;-46
2023/02/26 05:55:42;;;;;;;0.60;0.57;;;;;;;0.21;90.02;100306.75;5072044;28;20812;-46
2023/02/26 05:58:09;;;;;;;0.40;0.17;;;;;;;0.49;89.19;100301.00;5071927;28;20842;-46
2023/02/26 06:00:35;;;;;;;0.27;0.20;;;;;;;0.44;88.61;100304.44;5073347;28;20545;-46
2023/02/26 06:03:02;;;;;;;0.20;0.20;;;;;;;0.18;89.56;100304.97;5075655;28;20458;-46
2023/02/26 06:05:28;;;;;;;0.30;0.20;;;;;;;0.25;88.99;100304.19;5075640;28;20904;-46
2023/02/26 06:07:55;;;;;;;0.73;0.20;;;;;;;-0.10;89.97;100303.72;5075574;28;20449;-46
2023/02/26 06:10:21;;;;;;;0.50;0.50;;;;;;;-0.05;89.91;100309.88;5075781;28;20503;-46
2023/02/26 06:12:48;;;;;;;0.20;0.20;;;;;;;0.06;89.37;100302.19;5075491;28;20461;-46
2023/02/26 06:15:14;;;;;;;0.30;0.20;;;;;;;-0.01;89.09;100303.84;5075050;28;20982;-46
2023/02/26 06:17:40;;;;;;;0.30;0.20;;;;;;;-0.02;88.88;100317.75;5075372;28;20445;-45
2023/02/26 06:20:08;;;;;;;0.20;0.20;;;;;;;0.00;89.08;100323.03;5075353;28;20470;-46
2023/02/26 06:22:34;;;;;;;0.27;0.17;;;;;;;0.06;88.84;100312.66;5075077;28;20484;-47
2023/02/26 06:25:01;;;;;;;0.20;0.10;;;;;;;0.14;88.18;100318.88;5075255;28;20446;-46
2023/02/26 06:27:27;;;;;;;0.20;0.10;;;;;;;0.18;87.63;100325.88;5074962;28;20450;-46
2023/02/26 06:29:54;;;;;;;0.20;0.20;;;;;;;0.01;88.47;100326.53;5075298;28;20442;-47
2023/02/26 06:32:20;;;;;;;0.20;0.13;;;;;;;0.07;88.75;100321.38;5075041;28;20457;-47
2023/02/26 06:34:47;;;;;;;0.30;0.30;;;;;;;0.17;87.34;100333.72;5074874;28;20485;-47
2023/02/26 06:37:14;;;;;;;0.30;0.20;;;;;;;0.18;87.27;100340.69;5068180;28;20968;-46
2023/02/26 06:39:40;;;;;;;0.30;0.30;;;;;;;0.13;87.05;100350.19;5070830;28;20450;-46
2023/02/26 06:42:07;;;;;;;0.20;0.20;;;;;;;0.32;87.43;100352.22;5074790;28;20450;-46
2023/02/26 06:44:37;;;;;;;0.20;0.20;;;;;;;0.20;87.20;100352.03;5074953;28;20438;-46
2023/02/26 06:47:03;;;;;;;0.20;0.10;;;;;;;0.26;87.40;100359.97;5075020;28;20478;-48
2023/02/26 06:49:30;;;;;;;0.20;0.20;;;;;;;0.22;87.06;100358.16;5074638;28;20460;-47
2023/02/26 06:51:56;;;;;;;0.30;0.20;;;;;;;0.25;86.73;100363.44;5074732;28;20453;-46
2023/02/26 06:54:23;;;;;;;0.20;0.10;;;;;;;0.41;86.56;100367.13;5074821;28;20493;-46
2023/02/26 06:56:49;;;;;;;0.20;0.10;;;;;;;0.50;85.53;100364.66;5074411;28;20835;-46
2023/02/26 06:59:16;;;;;;;0.20;0.20;;;;;;;0.44;85.64;100372.44;5075058;28;20457;-46
2023/02/26 07:01:42;;;;;;;0.40;0.40;;;;;;;0.52;85.70;100383.84;5074482;28;20449;-46
2023/02/26 07:04:09;;;;;;;0.30;0.20;;;;;;;0.65;85.64;100384.88;5056526;28;20445;-47
2023/02/26 07:06:35;;;;;;;0.30;0.20;;;;;;;0.62;85.87;100401.41;5074405;28;20575;-46
2023/02/26 07:09:02;;;;;;;0.20;0.10;;;;;;;0.46;86.38;100400.34;5074642;28;20453;-47
2023/02/26 07:11:28;;;;;;;0.30;0.30;;;;;;;0.75;86.17;100397.22;5074030;28;20507;-46
2023/02/26 07:13:55;;;;;;;0.30;0.20;;;;;;;0.67;85.69;100409.31;5074078;28;20939;-46
2023/02/26 07:16:21;;;;;;;0.20;0.10;;;;;;;0.64;85.88;100419.75;5074261;28;20502;-46
2023/02/26 07:18:48;;;;;;;0.53;0.30;;;;;;;0.54;85.74;100409.16;5074166;28;20493;-49
2023/02/26 07:21:14;;;;;;;0.20;0.20;;;;;;;0.36;85.82;100427.19;5074207;28;20446;-46
2023/02/26 07:23:41;;;;;;;0.30;0.20;;;;;;;0.34;87.34;100428.91;5074264;28;20884;-46
2023/02/26 07:26:07;;;;;;;0.30;0.20;;;;;;;0.66;86.99;100442.44;5073860;28;20466;-46
2023/02/26 07:28:34;;;;;;;0.30;0.20;;;;;;;0.74;85.66;100437.31;5074024;28;20544;-46
2023/02/26 07:31:01;;;;;;;0.63;0.20;;;;;;;0.70;86.27;100441.66;5073879;28;20456;-47
2023/02/26 07:33:27;;;;;;;0.40;0.40;;;;;;;0.57;86.65;100447.56;5073731;28;20892;-47
2023/02/26 07:35:54;;;;;;;0.30;0.30;;;;;;;0.64;85.60;100453.75;5056060;28;20580;-49
2023/02/26 07:38:20;;;;;;;0.20;0.10;;;;;;;0.67;86.85;100459.88;5073771;28;21046;-46
2023/02/26 07:40:47;;;;;;;0.20;0.10;;;;;;;0.72;86.10;100462.59;5073790;28;20495;-47
2023/02/26 07:43:13;;;;;;;0.20;0.20;;;;;;;0.80;86.72;100477.50;5073778;28;20450;-46
2023/02/26 07:45:39;;;;;;;0.20;0.10;;;;;;;0.99;85.25;100465.56;5073455;28;20507;-47
2023/02/26 07:48:06;;;;;;;0.20;0.20;;;;;;;0.96;85.48;100469.88;5073905;28;20446;-46
2023/02/26 07:50:33;;;;;;;0.40;0.30;;;;;;;1.12;85.13;100470.09;5073752;28;20450;-47
2023/02/26 07:52:59;;;;;;;0.40;0.40;;;;;;;1.19;85.35;100469.31;5073661;28;20935;-48
2023/02/26 07:55:26;;;;;;;0.20;0.20;;;;;;;1.02;84.31;100476.06;5073525;28;20505;-47
2023/02/26 07:57:53;;;;;;;0.20;0.20;;;;;;;1.04;85.27;100471.72;5073447;28;20449;-48
2023/02/26 08:00:20;;;;;;;0.20;0.10;;;;;;;1.15;85.23;100471.88;5073148;28;20450;-47
2023/02/26 08:02:46;;;;;;;0.30;0.20;;;;;;;1.23;85.00;100478.06;5073649;28;20446;-47
2023/02/26 08:05:13;;;;;;;0.30;0.20;;;;;;;1.21;84.05;100485.03;5073457;28;20442;-47
2023/02/26 08:07:39;;;;;;;1.90;0.60;;;;;;;1.26;82.36;100480.75;5073252;28;20466;-47
2023/02/26 08:10:06;;;;;;;1.13;1.13;;;;;;;1.34;83.96;100472.97;5073336;28;20453;-47
2023/02/26 08:12:33;;;;;;;0.20;0.10;;;;;;;1.31;82.36;100480.78;5073063;28;20519;-47
2023/02/26 08:14:59;;;;;;;0.20;0.10;;;;;;;1.26;81.97;100496.47;5072937;28;20512;-47
2023/02/26 08:17:25;;;;;;;0.20;0.10;;;;;;;1.26;80.98;100482.50;5073218;28;20445;-47
2023/02/26 08:19:52;;;;;;;0.20;0.10;;;;;;;1.25;80.45;100484.22;5072929;28;20446;-47
2023/02/26 08:22:19;;;;;;;0.30;0.30;;;;;;;1.26;80.63;100491.22;5072968;28;20466;-47
2023/02/26 08:24:46;;;;;;;0.30;0.20;;;;;;;1.36;80.96;100492.19;5072609;28;20445;-47
2023/02/26 08:27:12;;;;;;;0.20;0.10;;;;;;;1.33;81.20;100500.88;5072878;28;20477;-47
2023/02/26 08:29:39;;;;;;;0.50;0.30;;;;;;;1.36;80.02;100500.03;5072761;28;20449;-47
2023/02/26 08:32:05;;;;;;;0.20;0.20;;;;;;;1.33;82.14;100507.88;5072902;28;20441;-49
2023/02/26 08:34:32;;;;;;;0.20;0.20;;;;;;;1.29;81.55;100504.34;5072749;28;20547;-47
2023/02/26 08:36:58;;;;;;;2.73;0.40;;;;;;;1.32;81.14;100508.72;5072725;28;20465;-47
2023/02/26 08:39:25;;;;;;;0.20;0.20;;;;;;;1.28;81.39;100506.94;5072775;28;20450;-47
2023/02/26 08:41:51;;;;;;;0.90;0.90;;;;;;;1.51;80.86;100505.50;5072455;28;20468;-48
2023/02/26 08:44:17;;;;;;;0.23;0.20;;;;;;;1.34;81.25;100514.84;5072793;28;20525;-47
2023/02/26 08:46:44;;;;;;;0.20;0.10;;;;;;;1.26;80.35;100534.84;5072369;28;20531;-47
2023/02/26 08:49:10;;;;;;;0.20;0.20;;;;;;;1.34;81.61;100525.34;5072456;28;21021;-48
2023/02/26 08:51:37;;;;;;;0.77;0.40;;;;;;;1.56;81.68;100534.34;5072638;28;20446;-47
2023/02/26 08:54:03;;;;;;;0.30;0.20;;;;;;;1.55;79.87;100538.69;5072547;28;20445;-48
2023/02/26 08:56:30;;;;;;;0.20;0.20;;;;;;;1.58;79.38;100543.09;5072240;28;20469;-48
2023/02/26 08:58:57;;;;;;;0.30;0.20;;;;;;;1.61;79.65;100538.75;5072719;28;20449;-47
2023/02/26 09:01:23;;;;;;;0.30;0.20;;;;;;;1.66;80.07;100546.69;5072209;28;20791;-47
2023/02/26 09:03:50;;;;;;;0.20;0.10;;;;;;;1.60;78.94;100547.47;5072439;28;20451;-49
2023/02/26 09:06:17;;;;;;;0.30;0.20;;;;;;;1.55;77.94;100557.03;5071962;28;20462;-47
2023/02/26 09:08:43;;;;;;;0.50;0.40;;;;;;;1.57;77.96;100552.69;5072553;28;20445;-48
2023/02/26 09:11:10;;;;;;;0.30;0.20;;;;;;;1.64;78.61;100561.47;5054481;28;20453;-47
2023/02/26 09:13:36;;;;;;;0.20;0.10;;;;;;;1.65;77.84;100558.03;5072098;28;21024;-47
2023/02/26 09:16:03;;;;;;;0.20;0.20;;;;;;;1.82;77.77;100563.47;5072159;28;20497;-47
2023/02/26 09:18:29;;;;;;;0.30;0.20;;;;;;;1.76;76.97;100566.88;5072242;28;20955;-47
2023/02/26 09:20:56;;;;;;;0.20;0.17;;;;;;;1.69;77.33;100579.03;5072113;28;20485;-49
2023/02/26 09:23:22;;;;;;;0.20;0.10;;;;;;;1.82;76.65;100572.19;5072252;28;20456;-47
2023/02/26 09:25:53;;;;;;;0.50;0.30;;;;;;;1.95;76.40;100574.09;5071935;28;20552;-48
2023/02/26 09:28:21;;;;;;;0.40;0.30;;;;;;;2.21;77.10;100571.75;5072124;28;20441;-47
2023/02/26 09:30:51;;;;;;;0.30;0.20;;;;;;;2.08;74.13;100572.47;5072332;28;20457;-48
2023/02/26 09:33:19;;;;;;;0.20;0.17;;;;;;;1.97;75.16;100576.72;5054475;28;20446;-47
2023/02/26 09:35:49;;;;;;;0.20;0.10;;;;;;;2.27;75.46;100592.78;5075360;28;20493;-46
2023/02/26 09:38:16;;;;;;;0.40;0.40;;;;;;;2.36;73.28;100579.75;5076034;28;20453;-47
2023/02/26 09:40:55;;;;;;;2.93;0.97;;;;;;;2.06;72.74;100585.59;5076191;28;20449;-47
2023/02/26 09:43:49;;;;;;;0.30;0.20;;;;;;;2.27;72.81;100602.38;5076209;28;20441;-48
2023/02/26 09:46:35;;;;;;;1.00;0.30;;;;;;;2.32;73.69;100601.53;5076031;28;20543;-48
2023/02/26 09:49:21;;;;;;;0.33;0.30;;;;;;;2.14;71.95;100600.50;5063205;28;20980;-49
2023/02/26 09:51:52;;;;;;;0.20;0.10;;;;;;;2.44;72.23;100595.53;5075983;28;20441;-49
2023/02/26 09:54:23;;;;;;;0.30;0.23;;;;;;;2.37;70.62;100604.25;5075834;28;20446;-48
2023/02/26 09:56:52;;;;;;;0.60;0.57;;;;;;;2.53;70.49;100610.50;5075720;28;20496;-48
2023/02/26 09:59:18;;;;;;;0.53;0.53;;;;;;;2.47;69.34;100597.31;5075920;28;20503;-48
2023/02/26 10:01:55;;;;;;;0.27;0.17;;;;;;;2.60;71.69;100596.56;5075801;28;20453;-48
2023/02/26 10:04:52;;;;;;;0.30;0.27;;;;;;;2.48;69.91;100596.47;5075472;28;20818;-48
2023/02/26 10:07:33;;;;;;;0.20;0.20;;;;;;;2.60;69.36;100602.72;5066078;28;20465;-48
2023/02/26 10:10:36;;;;;;;0.40;0.30;;;;;;;2.72;69.14;100599.28;5075572;28;20441;-48
2023/02/26 10:13:03;;;;;;;0.20;0.10;;;;;;;2.89;66.97;100604.69;5075593;28;20457;-47
2023/02/26 10:15:38;;;;;;;0.40;0.37;;;;;;;3.07;66.37;100628.44;5075183;28;20855;-50
2023/02/26 10:18:22;;;;;;;4.13;0.67;;;;;;;3.36;64.80;100619.88;5075418;28;20441;-48
2023/02/26 10:20:55;;;;;;;0.20;0.17;;;;;;;3.31;65.22;100624.22;5075294;28;20505;-48
2023/02/26 10:23:40;;;;;;;0.20;0.20;;;;;;;3.24;66.04;100616.28;5075361;28;20452;-48
2023/02/26 10:26:21;;;;;;;0.20;0.20;;;;;;;3.29;65.20;100626.84;5075162;28;20711;-48
2023/02/26 10:29:01;;;;;;;0.33;0.33;;;;;;;3.70;63.38;100634.06;5075335;28;20530;-48
2023/02/26 10:31:28;;;;;;;9.07;0.20;;;;;;;3.43;63.16;100634.81;5075170;28;20445;-49
2023/02/26 10:34:22;;;;;;;0.50;0.50;;;;;;;3.60;64.15;100635.78;5074812;28;20464;-48
2023/02/26 10:37:18;;;;;;;0.30;0.20;;;;;;;3.56;64.77;100623.47;5075033;28;20544;-48
2023/02/26 10:39:56;;;;;;;0.40;0.30;;;;;;;3.29;65.31;100626.84;5065820;28;20536;-49
2023/02/26 10:42:31;;;;;;;0.20;0.20;;;;;;;3.27;64.92;100634.69;5074875;28;20446;-48
2023/02/26 10:45:06;;;;;;;0.30;0.20;;;;;;;3.61;65.26;100634.03;5074784;28;20481;-48
2023/02/26 10:47:35;;;;;;;2.77;0.90;;;;;;;3.75;65.88;100633.22;5074999;28;20445;-48
2023/02/26 10:50:05;;;;;;;0.40;0.30;;;;;;;3.69;63.59;100637.56;5074895;28;20446;-48
2023/02/26 10:52:34;;;;;;;0.20;0.20;;;;;;;3.89;64.78;100628.03;5075144;28;20449;-48
2023/02/26 10:55:36;;;;;;;0.30;0.20;;;;;;;4.14;63.72;100650.03;5074416;28;20994;-49
2023/02/26 10:58:13;;;;;;;0.43;0.43;;;;;;;4.23;63.79;100644.78;5074832;28;20451;-48
2023/02/26 11:00:42;;;;;;;0.20;0.20;;;;;;;4.33;64.88;100643.94;5074859;28;20476;-49
2023/02/26 11:03:16;;;;;;;0.20;0.13;;;;;;;4.39;64.57;100643.97;5074383;28;20958;-48
2023/02/26 11:05:43;;;;;;;0.97;0.97;;;;;;;4.43;65.13;100642.22;5074377;28;20460;-49
2023/02/26 11:08:14;;;;;;;0.60;0.57;;;;;;;4.45;64.64;100643.09;5074793;28;20450;-48
2023/02/26 11:10:44;;;;;;;0.30;0.20;;;;;;;4.49;63.06;100654.50;5075002;28;20536;-48
2023/02/26 11:13:11;;;;;;;0.30;0.20;;;;;;;4.24;61.50;100653.56;5074801;28;20531;-48
2023/02/26 11:15:40;;;;;;;0.30;0.20;;;;;;;4.50;60.68;100658.88;5074420;28;20493;-49
2023/02/26 11:18:35;;;;;;;0.30;0.20;;;;;;;4.94;61.77;100648.44;5073521;28;20473;-48
2023/02/26 11:21:42;;;;;;;0.30;0.20;;;;;;;4.86;62.07;100658.06;5074301;28;20525;-49
2023/02/26 11:24:49;;;;;;;;;;;;;;;;;;;;;
2023/02/26 11:27:52;;;;;;;0.30;0.20;;;;;;;4.92;60.38;100651.03;5056476;28;20965;-49
2023/02/26 11:30:38;;;;;;;0.20;0.20;;;;;;;4.91;60.83;100662.44;5073611;28;20473;-51
2023/02/26 11:33:43;;;;;;;0.30;0.20;;;;;;;4.70;60.83;100659.81;5074003;28;20446;-48
2023/02/26 11:36:28;;;;;;;1.43;0.77;;;;;;;4.07;61.27;100661.41;5064109;28;20497;-48
2023/02/26 11:39:25;;;;;;;0.20;0.20;;;;;;;4.44;61.44;100665.03;5073712;28;20437;-49
2023/02/26 11:42:05;;;;;;;0.20;0.20;;;;;;;4.61;59.40;100655.41;5073608;28;20533;-49
2023/02/26 11:44:47;;;;;;;0.30;0.20;;;;;;;4.27;60.10;100667.63;5073613;28;20532;-48
2023/02/26 11:47:28;;;;;;;0.27;0.20;;;;;;;3.99;59.97;100665.78;5073082;28;20515;-48
2023/02/26 11:50:11;;;;;;;4.30;0.40;;;;;;;3.97;59.24;100651.72;5072628;28;20947;-49
2023/02/26 11:53:06;;;;;;;0.60;0.57;;;;;;;3.91;61.08;100662.22;5073357;28;20481;-48
2023/02/26 11:56:26;;;;;;;0.57;0.20;;;;;;;3.90;58.54;100658.72;5061677;28;20489;-48